Time;durP1;ratioP1;P1;durP2;ratioP2;P2;SDS_P1;SDS_P2;PMS_P1;PMS_P2;Temp;Humidity;BMP_temperature;BMP_pressure;BME280_temperature;BME280_humidity;BME280_pressure;Samples;Min_cycle;Max_cycle;Signal;HPM_P1;HPM_P2
2023/01/10 00:01:23;;;;;;;11.65;2.70;;;;;;;5.11;84.02;101145.88;5009453;28;20029;-89
2023/01/10 00:03:48;;;;;;;13.35;4.30;;;;;;;5.16;83.89;101156.31;5022172;28;20060;-91
2023/01/10 00:06:14;;;;;;;15.30;3.30;;;;;;;5.19;84.21;101172.00;5021917;28;20109;-90
2023/01/10 00:08:39;;;;;;;7.63;2.80;;;;;;;5.16;83.89;101170.28;5024510;28;20025;-91
2023/01/10 00:13:22;;;;;;;11.98;3.03;;;;;;;5.13;83.83;101165.09;5025141;28;20038;-92
2023/01/10 00:13:53;;;;;;;14.32;3.58;;;;;;;5.18;83.70;101167.66;5024081;28;20037;-92
2023/01/10 00:16:19;;;;;;;9.80;3.53;;;;;;;5.23;84.03;101178.94;5007902;28;20040;-91
2023/01/10 00:18:44;;;;;;;12.00;4.00;;;;;;;5.27;83.90;101191.09;5007301;28;20029;-90
2023/01/10 00:21:09;;;;;;;7.90;3.20;;;;;;;5.28;83.97;101183.25;5026507;28;20060;-92
2023/01/10 00:23:35;;;;;;;9.90;3.08;;;;;;;5.29;83.83;101190.22;5008113;28;20057;-90
2023/01/10 00:26:00;;;;;;;15.02;3.38;;;;;;;5.34;84.19;101204.13;5026224;28;20473;-90
2023/01/10 00:28:25;;;;;;;9.18;2.80;;;;;;;5.28;83.67;101198.09;5025927;28;20041;-91
2023/01/10 00:31:10;;;;;;;7.50;3.28;;;;;;;5.30;83.54;101209.41;5027501;28;20080;-91
2023/01/10 00:33:36;;;;;;;11.35;3.22;;;;;;;5.27;83.27;101217.31;5008389;28;20033;-91
2023/01/10 00:36:06;;;;;;;11.75;3.10;;;;;;;5.28;83.23;101217.31;5007533;28;20029;-91
2023/01/10 00:38:33;;;;;;;11.20;3.03;;;;;;;5.19;83.14;101219.19;5023323;28;20095;-91
2023/01/10 00:40:58;;;;;;;10.50;3.92;;;;;;;5.17;83.30;101219.19;5027684;28;20465;-90
2023/01/10 00:46:09;;;;;;;10.52;3.38;;;;;;;5.10;83.55;101231.50;5028180;28;20040;-91
2023/01/10 00:48:35;;;;;;;15.73;3.58;;;;;;;5.04;83.77;101243.81;5027996;28;20057;-91
2023/01/10 00:51:00;;;;;;;10.98;3.22;;;;;;;5.07;83.70;101243.75;5025464;28;20131;-92
2023/01/10 00:53:26;;;;;;;7.40;3.20;;;;;;;5.02;83.93;101238.56;5027009;28;20026;-91
2023/01/10 00:55:53;;;;;;;7.13;3.03;;;;;;;5.03;83.75;101234.19;5002601;28;20084;-90
2023/01/10 00:58:18;;;;;;;11.45;2.88;;;;;;;5.06;83.78;101239.41;5025795;28;20036;-90
2023/01/10 01:00:48;;;;;;;17.33;3.50;;;;;;;5.05;83.79;101232.44;5026052;28;20111;-90
2023/01/10 01:03:14;;;;;;;12.68;3.50;;;;;;;5.11;83.71;101237.59;5012313;28;20037;-91
2023/01/10 01:05:41;;;;;;;11.32;3.13;;;;;;;5.11;83.72;101256.81;5005174;28;20030;-90
2023/01/10 01:08:07;;;;;;;13.60;3.58;;;;;;;5.10;84.11;101247.22;5022129;28;20476;-91
2023/01/10 01:10:32;;;;;;;8.10;3.25;;;;;;;5.14;83.69;101247.19;5005550;28;20024;-91
2023/01/10 01:13:04;;;;;;;11.77;3.70;;;;;;;5.26;83.91;101266.25;5024358;28;20029;-90
2023/01/10 01:15:29;;;;;;;17.35;4.20;;;;;;;5.23;83.54;101255.81;5021357;28;20028;-90
2023/01/10 01:17:55;;;;;;;12.27;3.50;;;;;;;5.38;83.06;101276.63;5018183;28;20733;-91
2023/01/10 01:20:20;;;;;;;7.20;2.83;;;;;;;5.27;82.90;101259.25;5001525;28;20130;-91
2023/01/10 01:22:46;;;;;;;13.65;3.30;;;;;;;5.31;82.71;101281.94;5001302;28;20049;-90
2023/01/10 01:25:12;;;;;;;13.05;3.53;;;;;;;5.26;83.19;101274.13;5021791;28;20449;-90
2023/01/10 01:27:37;;;;;;;9.65;3.72;;;;;;;5.28;82.69;101271.50;5020223;28;20026;-91
2023/01/10 01:30:05;;;;;;;10.63;2.83;;;;;;;5.25;83.33;101268.91;5002475;28;20029;-90
2023/01/10 01:32:30;;;;;;;12.40;3.55;;;;;;;5.34;82.69;101293.25;5020483;28;20041;-91
2023/01/10 01:34:55;;;;;;;11.43;3.67;;;;;;;5.32;82.88;101286.31;5025504;28;20452;-90
2023/01/10 01:37:21;;;;;;;11.77;3.72;;;;;;;5.28;82.94;101274.13;5018412;28;20029;-90
2023/01/10 01:39:46;;;;;;;14.15;5.78;;;;;;;5.31;82.68;101279.31;5021606;28;20025;-91
2023/01/10 01:42:32;;;;;;;14.85;5.88;;;;;;;5.36;82.73;101290.59;5002082;28;20133;-91
2023/01/10 01:45:15;;;;;;;14.68;5.72;;;;;;;5.37;82.71;101308.09;5021124;28;20112;-91
2023/01/10 01:47:50;;;;;;;17.48;7.75;;;;;;;5.40;82.82;101304.56;4999715;28;20036;-90
2023/01/10 01:50:42;;;;;;;19.20;7.15;;;;;;;5.49;82.72;101312.31;5003583;28;20025;-90
2023/01/10 01:53:24;;;;;;;17.00;7.13;;;;;;;5.59;82.92;101312.19;4992175;28;20552;-90
2023/01/10 01:55:52;;;;;;;20.50;8.15;;;;;;;5.66;82.98;101305.13;5025166;28;20465;-91
2023/01/10 01:58:23;;;;;;;13.88;6.88;;;;;;;5.66;83.25;101307.75;5025637;28;20126;-90
2023/01/10 02:00:49;;;;;;;16.35;6.57;;;;;;;5.70;83.39;101309.44;5006690;28;20026;-91
2023/01/10 02:03:15;;;;;;;17.10;6.82;;;;;;;5.75;83.32;101315.50;5009209;28;20436;-92
2023/01/10 02:05:43;;;;;;;20.25;6.63;;;;;;;5.76;83.22;101325.09;4996740;28;20454;-92
2023/01/10 02:08:08;;;;;;;17.70;6.60;;;;;;;5.74;83.40;101321.66;5022094;28;20033;-91
2023/01/10 02:10:47;;;;;;;14.40;5.60;;;;;;;5.79;83.54;101326.84;5026496;28;20495;-91
2023/01/10 02:13:16;;;;;;;15.73;5.65;;;;;;;5.78;83.59;101325.97;5024990;28;20465;-90
2023/01/10 02:15:42;;;;;;;13.98;4.88;;;;;;;5.77;83.53;101323.34;5022767;28;20121;-92
2023/01/10 02:18:08;;;;;;;12.15;4.40;;;;;;;5.78;83.82;101331.22;5008060;28;20116;-90
2023/01/10 02:20:45;;;;;;;20.65;5.78;;;;;;;5.82;83.71;101330.25;5022820;28;20025;-91
2023/01/10 02:23:32;;;;;;;14.02;4.85;;;;;;;5.85;83.71;101332.00;5022987;28;20041;-92
2023/01/10 02:26:16;;;;;;;13.68;4.25;;;;;;;5.87;83.95;101340.69;5012253;28;20029;-90
2023/01/10 02:28:56;;;;;;;18.50;4.90;;;;;;;5.91;83.88;101334.53;5020269;28;20087;-90
2023/01/10 02:31:41;;;;;;;9.63;4.22;;;;;;;5.87;83.69;101331.09;5001259;28;20037;-90
2023/01/10 02:34:20;;;;;;;10.40;3.17;;;;;;;5.83;83.35;101332.03;4993836;28;20029;-90
2023/01/10 02:36:54;;;;;;;17.73;3.85;;;;;;;5.77;83.68;101339.94;5025295;28;20073;-90
2023/01/10 02:39:35;;;;;;;17.05;3.83;;;;;;;5.70;83.78;101335.69;5021780;28;20429;-90
2023/01/10 02:42:08;;;;;;;15.27;4.00;;;;;;;5.74;83.69;101336.53;5008425;28;20051;-91
2023/01/10 02:44:49;;;;;;;11.60;3.75;;;;;;;5.69;83.84;101325.19;5021376;28;20033;-90
2023/01/10 02:47:15;;;;;;;12.00;3.67;;;;;;;5.78;83.72;101346.06;5001415;28;20439;-91
2023/01/10 02:49:46;;;;;;;11.40;3.10;;;;;;;5.76;83.88;101338.22;5009303;28;20030;-91
2023/01/10 02:52:24;;;;;;;14.63;3.70;;;;;;;5.76;83.65;101353.09;5007274;28;20029;-90
2023/01/10 02:54:57;;;;;;;13.35;3.20;;;;;;;5.74;83.67;101349.63;5025141;28;20075;-91
2023/01/10 02:57:41;;;;;;;19.17;3.38;;;;;;;5.64;83.67;101343.59;5024281;28;20075;-91
2023/01/10 03:00:31;;;;;;;12.10;3.50;;;;;;;5.62;83.75;101358.50;5014314;28;20026;-91
2023/01/10 03:03:16;;;;;;;16.23;3.03;;;;;;;5.56;83.45;101354.22;5030606;28;20575;-90
2023/01/10 03:05:54;;;;;;;13.40;3.10;;;;;;;5.53;83.61;101359.47;5030192;28;20029;-91
2023/01/10 03:08:32;;;;;;;12.40;3.15;;;;;;;5.45;83.87;101368.31;5007360;28;20034;-92
2023/01/10 03:11:08;;;;;;;10.82;3.40;;;;;;;5.43;83.73;101370.94;5008004;28;20405;-91
2023/01/10 03:13:36;;;;;;;16.98;3.60;;;;;;;5.38;83.80;101375.38;5028543;28;20041;-90
2023/01/10 03:16:05;;;;;;;13.38;3.30;;;;;;;5.28;83.86;101373.75;5006413;28;20121;-91
2023/01/10 03:18:37;;;;;;;8.75;2.92;;;;;;;5.29;83.96;101385.97;5006897;28;20026;-91
2023/01/10 03:21:05;;;;;;;14.27;3.13;;;;;;;5.20;83.96;101380.81;5029885;28;20052;-91
2023/01/10 03:23:33;;;;;;;16.63;3.20;;;;;;;5.25;83.81;101400.84;5008844;28;20051;-91
2023/01/10 03:26:01;;;;;;;14.73;3.60;;;;;;;5.57;83.24;101410.16;5029075;28;20041;-90
2023/01/10 03:28:48;;;;;;;8.98;2.92;;;;;;;5.71;82.77;101415.25;5010468;28;20477;-90
2023/01/10 03:31:25;;;;;;;11.52;2.85;;;;;;;5.77;82.75;101412.53;5020102;28;20037;-91
2023/01/10 03:33:50;;;;;;;9.82;3.05;;;;;;;5.77;82.54;101405.53;5029013;28;20373;-91
2023/01/10 03:36:34;;;;;;;11.48;3.35;;;;;;;5.80;82.42;101399.41;5030226;28;20037;-90
2023/01/10 03:39:22;;;;;;;9.80;3.35;;;;;;;5.83;82.20;101404.63;5009163;28;20470;-91
2023/01/10 03:42:24;;;;;;;9.10;3.17;;;;;;;5.88;82.33;101421.19;5027329;28;20479;-91
2023/01/10 03:45:07;;;;;;;7.25;3.25;;;;;;;5.82;82.37;101410.75;4998998;28;20041;-91
2023/01/10 03:47:48;;;;;;;17.35;2.90;;;;;;;6.07;81.52;101417.47;5022164;28;20036;-90
2023/01/10 03:50:18;;;;;;;13.68;3.22;;;;;;;6.08;81.06;101423.59;5030426;28;20386;-91
2023/01/10 03:52:44;;;;;;;8.13;2.83;;;;;;;6.13;81.03;101435.78;5029237;28;20120;-89
2023/01/10 03:55:11;;;;;;;14.20;3.30;;;;;;;6.10;81.17;101438.44;5023153;28;20634;-92
2023/01/10 03:57:36;;;;;;;16.67;3.30;;;;;;;6.06;81.19;101434.13;5008642;28;20088;-90
2023/01/10 04:00:06;;;;;;;17.45;3.95;;;;;;;6.09;81.20;101441.94;5008578;28;20029;-92
2023/01/10 04:02:31;;;;;;;10.77;2.83;;;;;;;6.15;81.23;101446.25;5028159;28;20245;-90
2023/01/10 04:04:57;;;;;;;12.63;3.15;;;;;;;6.16;80.93;101449.75;5030065;28;20517;-91
2023/01/10 04:07:23;;;;;;;16.33;3.15;;;;;;;6.17;80.79;101448.88;5008556;28;20029;-91
2023/01/10 04:09:49;;;;;;;10.98;2.72;;;;;;;6.18;80.73;101451.47;5029945;28;20040;-91
2023/01/10 04:12:14;;;;;;;14.30;2.90;;;;;;;6.17;80.74;101456.75;5026306;28;20033;-91
2023/01/10 04:14:40;;;;;;;11.88;3.03;;;;;;;6.07;80.88;101448.97;5022224;28;20029;-91
2023/01/10 04:17:05;;;;;;;8.35;2.65;;;;;;;6.11;80.91;101463.81;5027696;28;20017;-91
2023/01/10 04:19:30;;;;;;;15.23;4.10;;;;;;;6.09;80.45;101457.69;5030598;28;20056;-90
2023/01/10 04:21:56;;;;;;;12.75;2.80;;;;;;;6.02;80.40;101456.03;5026393;28;20021;-90
2023/01/10 04:24:22;;;;;;;8.27;2.38;;;;;;;5.99;80.77;101479.69;5012279;28;20021;-91
2023/01/10 04:26:47;;;;;;;14.50;3.67;;;;;;;5.88;80.71;101466.66;5026558;28;20436;-91
2023/01/10 04:29:12;;;;;;;23.92;4.10;;;;;;;5.90;80.95;101477.13;5023510;28;20044;-90
2023/01/10 04:31:38;;;;;;;16.92;3.10;;;;;;;5.80;80.68;101471.13;5026004;28;21436;-91
2023/01/10 04:34:05;;;;;;;13.95;3.65;;;;;;;5.78;80.85;101472.00;5008961;28;20025;-91
2023/01/10 04:36:30;;;;;;;13.75;3.78;;;;;;;5.76;80.92;101474.66;5009336;28;20038;-90
2023/01/10 04:38:55;;;;;;;15.15;4.10;;;;;;;5.71;80.98;101470.34;5004604;28;20037;-91
2023/01/10 04:41:20;;;;;;;17.20;3.13;;;;;;;5.66;81.20;101464.28;5008643;28;20176;-92
2023/01/10 04:43:46;;;;;;;13.82;2.95;;;;;;;5.67;80.98;101460.75;5018797;28;20045;-91
2023/01/10 04:46:11;;;;;;;16.73;3.05;;;;;;;5.65;81.25;101462.53;5006975;28;20029;-91
2023/01/10 04:48:36;;;;;;;17.90;3.20;;;;;;;5.60;81.13;101458.19;5029887;28;20473;-91
2023/01/10 04:51:02;;;;;;;11.80;3.08;;;;;;;5.58;80.96;101469.59;5025154;28;20029;-91
2023/01/10 04:53:28;;;;;;;12.13;3.45;;;;;;;5.57;81.82;101476.59;5019139;28;20052;-91
2023/01/10 04:55:53;;;;;;;15.32;3.70;;;;;;;5.65;81.20;101480.91;5029757;28;20477;-90
2023/01/10 04:58:18;;;;;;;17.73;3.30;;;;;;;5.58;81.31;101480.94;5026292;28;20037;-91
2023/01/10 05:00:44;;;;;;;15.15;3.22;;;;;;;5.68;81.25;101496.59;5014259;28;20096;-90
2023/01/10 05:03:09;;;;;;;21.30;3.70;;;;;;;5.69;81.05;101491.34;5028250;28;20030;-91
2023/01/10 05:05:34;;;;;;;13.35;2.60;;;;;;;5.73;81.41;101490.41;5028178;28;20029;-92
2023/01/10 05:07:59;;;;;;;17.45;3.45;;;;;;;5.78;81.25;101479.88;5004485;28;20048;-91
2023/01/10 05:10:25;;;;;;;14.75;3.05;;;;;;;5.74;81.04;101478.19;5029106;28;20025;-91
2023/01/10 05:12:50;;;;;;;12.75;3.38;;;;;;;5.80;81.00;101480.75;5006421;28;20032;-90
2023/01/10 05:15:16;;;;;;;13.35;3.30;;;;;;;5.88;80.59;101494.66;5022094;28;20060;-91
2023/01/10 05:17:41;;;;;;;9.82;2.67;;;;;;;5.86;80.37;101499.91;5005027;28;20028;-90
2023/01/10 05:20:07;;;;;;;12.77;2.60;;;;;;;5.83;80.71;101504.34;5025982;28;20029;-91
2023/01/10 05:22:32;;;;;;;23.25;3.60;;;;;;;5.95;80.79;101524.34;5029000;28;20153;-90
2023/01/10 05:24:58;;;;;;;16.33;3.45;;;;;;;6.02;80.37;101529.53;5008424;28;20512;-91
2023/01/10 05:27:23;;;;;;;19.30;3.40;;;;;;;5.99;80.47;101533.94;5008072;28;20356;-90
2023/01/10 05:29:48;;;;;;;18.08;2.65;;;;;;;6.04;80.12;101534.75;5005168;28;20050;-89
2023/01/10 05:32:14;;;;;;;11.85;3.22;;;;;;;6.05;80.07;101523.38;5021619;28;20028;-91
2023/01/10 05:34:40;;;;;;;15.32;3.30;;;;;;;6.09;80.30;101533.81;5008427;28;20021;-91
2023/01/10 05:37:05;;;;;;;14.48;2.67;;;;;;;6.20;79.86;101538.97;5023891;28;20026;-91
2023/01/10 05:39:30;;;;;;;20.58;3.05;;;;;;;6.23;79.79;101530.19;5022248;28;20075;-91
2023/01/10 05:41:55;;;;;;;20.10;3.50;;;;;;;6.26;79.85;101544.16;5009493;28;20041;-90
2023/01/10 05:44:21;;;;;;;17.55;3.15;;;;;;;6.39;78.93;101539.63;5019497;28;20750;-92
2023/01/10 05:46:46;;;;;;;20.65;3.17;;;;;;;6.17;80.11;101549.50;5007169;28;20427;-91
2023/01/10 05:49:11;;;;;;;14.23;3.10;;;;;;;6.13;79.93;101547.78;5027348;28;20029;-91
2023/01/10 05:51:38;;;;;;;12.13;3.25;;;;;;;6.10;79.77;101553.94;5005780;28;20025;-91
2023/01/10 05:54:03;;;;;;;21.02;3.20;;;;;;;5.79;81.56;101563.84;5022919;28;20808;-91
2023/01/10 05:56:28;;;;;;;17.25;3.42;;;;;;;5.70;82.38;101555.19;5002526;28;20036;-91
2023/01/10 05:58:54;;;;;;;14.27;3.30;;;;;;;5.70;82.04;101560.44;5018753;28;20022;-90
2023/01/10 06:01:19;;;;;;;13.95;2.92;;;;;;;5.91;81.41;101559.34;5024847;28;20056;-91
2023/01/10 06:03:45;;;;;;;13.50;3.30;;;;;;;5.97;81.26;101567.19;5005600;28;20045;-90
2023/01/10 06:06:10;;;;;;;14.05;2.97;;;;;;;6.10;81.10;101580.19;5009908;28;20056;-91
2023/01/10 06:08:35;;;;;;;21.10;3.40;;;;;;;6.24;79.89;101579.16;5005789;28;20072;-90
2023/01/10 06:11:02;;;;;;;11.07;2.85;;;;;;;6.06;80.66;101569.72;5030290;28;20049;-91
2023/01/10 06:13:28;;;;;;;16.10;3.63;;;;;;;6.03;80.55;101562.75;5018416;28;20032;-90
2023/01/10 06:15:53;;;;;;;19.77;3.40;;;;;;;6.11;80.67;101567.94;5023297;28;20096;-90
2023/01/10 06:18:19;;;;;;;19.10;3.78;;;;;;;6.06;80.45;101559.22;5005191;28;20209;-90
2023/01/10 06:20:44;;;;;;;16.35;3.40;;;;;;;6.01;80.27;101564.53;5005949;28;20389;-91
2023/01/10 06:23:09;;;;;;;16.75;3.13;;;;;;;6.05;80.45;101576.72;5023481;28;20037;-91
2023/01/10 06:25:39;;;;;;;17.73;3.42;;;;;;;6.01;80.27;101568.91;5027888;28;20033;-91
2023/01/10 06:28:04;;;;;;;15.45;2.60;;;;;;;6.01;80.19;101571.53;5026684;28;20439;-90
2023/01/10 06:30:30;;;;;;;18.25;4.22;;;;;;;6.03;80.47;101585.53;5027225;28;20037;-91
2023/01/10 06:33:00;;;;;;;15.52;3.58;;;;;;;6.04;80.35;101593.38;5002260;28;20108;-90
2023/01/10 06:35:26;;;;;;;24.45;4.38;;;;;;;6.30;79.33;101582.63;5008858;28;20048;-90
2023/01/10 06:37:51;;;;;;;23.27;3.53;;;;;;;6.36;78.75;101587.81;5028339;28;20513;-89
2023/01/10 06:40:16;;;;;;;14.82;3.15;;;;;;;6.25;78.74;101584.44;5023865;28;20034;-90
2023/01/10 06:42:42;;;;;;;17.83;2.70;;;;;;;6.17;78.66;101577.50;5009186;28;20045;-91
2023/01/10 06:45:08;;;;;;;19.33;3.38;;;;;;;5.95;79.73;101588.22;5023679;28;20068;-91
2023/01/10 06:47:33;;;;;;;21.95;4.22;;;;;;;5.92;79.89;101603.97;5015052;28;20577;-94
2023/01/10 06:49:59;;;;;;;17.00;2.67;;;;;;;5.96;80.03;101600.44;5007633;28;20163;-91
2023/01/10 06:52:24;;;;;;;11.15;2.80;;;;;;;5.87;79.43;101590.88;5028627;28;20447;-91
2023/01/10 06:54:51;;;;;;;34.42;4.05;;;;;;;5.76;79.64;101612.84;5012543;28;20021;-91
2023/01/10 06:57:17;;;;;;;12.95;3.67;;;;;;;5.68;79.95;101604.16;5028408;28;20473;-91
2023/01/10 06:59:42;;;;;;;20.83;3.92;;;;;;;5.69;79.88;101611.13;5007661;28;20118;-91
2023/01/10 07:02:10;;;;;;;14.32;2.75;;;;;;;5.52;80.18;101606.88;5003552;28;20496;-91
2023/01/10 07:04:35;;;;;;;20.05;4.18;;;;;;;5.50;80.30;101615.63;5030630;28;20041;-90
2023/01/10 07:07:00;;;;;;;14.02;3.25;;;;;;;5.55;80.21;101625.25;5011651;28;20041;-89
2023/01/10 07:09:27;;;;;;;16.33;3.15;;;;;;;5.49;80.22;101617.38;5029402;28;20025;-90
2023/01/10 07:11:52;;;;;;;21.17;3.88;;;;;;;5.40;80.29;101635.81;5030725;28;20025;-90
2023/01/10 07:14:17;;;;;;;14.98;3.00;;;;;;;5.43;80.27;101638.41;5012072;28;20082;-90
2023/01/10 07:16:43;;;;;;;13.80;3.00;;;;;;;5.45;80.43;101649.75;5026129;28;20033;-91
2023/01/10 07:19:08;;;;;;;12.32;2.85;;;;;;;5.45;80.48;101665.50;5028157;28;20082;-90
2023/01/10 07:21:34;;;;;;;23.15;4.07;;;;;;;5.42;80.49;101656.78;5013334;28;20025;-90
2023/01/10 07:23:59;;;;;;;21.92;3.20;;;;;;;5.38;80.30;101659.44;5023692;28;20033;-91
2023/01/10 07:26:24;;;;;;;14.88;2.30;;;;;;;5.44;80.34;101660.25;5028002;28;20025;-91
2023/01/10 07:28:50;;;;;;;19.08;3.10;;;;;;;5.37;80.52;101668.19;5021361;28;20026;-89
2023/01/10 07:31:17;;;;;;;17.83;2.78;;;;;;;5.49;80.21;101672.47;5001634;28;20161;-90
2023/01/10 07:33:43;;;;;;;14.90;3.20;;;;;;;5.48;80.47;101680.34;5028100;28;20029;-91
2023/01/10 07:36:08;;;;;;;15.95;3.28;;;;;;;5.45;80.28;101673.34;5011868;28;20040;-90
2023/01/10 07:38:34;;;;;;;17.70;2.83;;;;;;;5.57;80.11;101686.41;5028829;28;20026;-90
2023/01/10 07:41:03;;;;;;;15.02;3.95;;;;;;;5.47;80.49;101691.72;5009010;28;20295;-90
2023/01/10 07:43:29;;;;;;;21.63;4.20;;;;;;;5.52;80.32;101693.44;5004141;28;20136;-89
2023/01/10 07:46:00;;;;;;;20.15;3.35;;;;;;;5.50;80.11;101696.94;5023533;28;20072;-90
2023/01/10 07:48:26;;;;;;;17.30;2.90;;;;;;;5.59;79.85;101704.75;5027914;28;20030;-89
2023/01/10 07:50:55;;;;;;;14.93;3.40;;;;;;;5.54;79.85;101691.66;5027808;28;20032;-90
2023/01/10 07:53:20;;;;;;;23.10;3.90;;;;;;;5.67;79.63;101708.22;5024270;28;20026;-90
2023/01/10 07:55:45;;;;;;;19.40;3.13;;;;;;;5.57;79.62;101711.78;5010044;28;20056;-89
2023/01/10 07:58:10;;;;;;;17.63;3.70;;;;;;;5.73;79.30;101710.78;5029929;28;20025;-90
2023/01/10 08:00:36;;;;;;;15.48;2.90;;;;;;;5.62;79.72;101720.47;5025151;28;20583;-90
2023/01/10 08:03:02;;;;;;;18.48;3.72;;;;;;;5.57;79.78;101712.66;5028646;28;20072;-90
2023/01/10 08:05:27;;;;;;;15.60;3.25;;;;;;;5.52;80.38;101706.56;5024956;28;20037;-90
2023/01/10 08:07:54;;;;;;;16.90;3.38;;;;;;;5.57;79.72;101709.16;5008742;28;20496;-90
2023/01/10 08:10:19;;;;;;;14.18;3.47;;;;;;;5.64;79.60;101716.09;5010606;28;20048;-90
2023/01/10 08:12:47;;;;;;;15.90;2.72;;;;;;;5.87;78.93;101715.94;5030054;28;20029;-90
2023/01/10 08:15:12;;;;;;;16.02;3.53;;;;;;;5.88;78.30;101709.84;5008663;28;20036;-89
2023/01/10 08:17:37;;;;;;;15.80;2.60;;;;;;;5.83;78.09;101711.63;5024490;28;20025;-90
2023/01/10 08:20:03;;;;;;;16.20;3.83;;;;;;;5.83;78.14;101725.63;5025226;28;20362;-89
2023/01/10 08:22:28;;;;;;;11.05;2.70;;;;;;;5.92;78.24;101718.56;5003547;28;20059;-90
2023/01/10 08:24:54;;;;;;;15.63;3.65;;;;;;;5.96;77.61;101718.53;5026468;28;20029;-90
2023/01/10 08:27:19;;;;;;;13.45;3.53;;;;;;;5.78;78.29;101708.13;5011688;28;20049;-89
2023/01/10 08:29:44;;;;;;;12.40;2.40;;;;;;;5.72;78.34;101709.06;5024694;28;20463;-89
2023/01/10 08:32:10;;;;;;;15.30;3.83;;;;;;;5.78;78.28;101722.16;5007345;28;20497;-89
2023/01/10 08:34:35;;;;;;;15.63;3.22;;;;;;;5.93;78.14;101726.47;5008471;28;20125;-89
2023/01/10 08:37:01;;;;;;;16.48;3.03;;;;;;;5.84;77.72;101723.88;5007182;28;20071;-90
2023/01/10 08:39:29;;;;;;;17.48;3.17;;;;;;;6.03;77.55;101725.50;5022875;28;20033;-93
2023/01/10 08:41:55;;;;;;;20.67;2.45;;;;;;;6.23;77.50;101712.22;5025412;28;20113;-93
2023/01/10 08:44:20;;;;;;;13.77;2.40;;;;;;;6.51;76.17;101712.84;5031103;28;20093;-92
2023/01/10 08:46:46;;;;;;;14.60;2.90;;;;;;;6.62;75.68;101713.63;5008872;28;20029;-91
2023/01/10 08:49:11;;;;;;;16.15;3.53;;;;;;;6.54;75.62;101711.97;5028512;28;20029;-92
2023/01/10 08:51:37;;;;;;;19.98;3.53;;;;;;;6.39;75.56;101712.97;5024762;28;20022;-91
2023/01/10 08:54:03;;;;;;;16.90;3.85;;;;;;;6.33;75.85;101713.88;5027381;28;20029;-91
2023/01/10 08:56:29;;;;;;;16.88;3.15;;;;;;;6.37;76.18;101712.97;5011252;28;20496;-92
2023/01/10 08:58:54;;;;;;;16.40;3.63;;;;;;;6.42;76.48;101718.19;5011113;28;20018;-91
2023/01/10 09:01:20;;;;;;;18.05;3.47;;;;;;;6.31;76.11;101712.16;5026593;28;20033;-92
2023/01/10 09:03:45;;;;;;;11.45;2.60;;;;;;;6.34;76.12;101704.25;5027508;28;20029;-92
2023/01/10 09:06:10;;;;;;;14.52;2.72;;;;;;;6.26;75.98;101691.19;5001233;28;20510;-90
2023/01/10 09:08:36;;;;;;;10.90;2.58;;;;;;;6.31;76.03;101699.03;5022845;28;20079;-90
2023/01/10 09:11:03;;;;;;;13.27;3.00;;;;;;;6.33;76.38;101705.13;5002759;28;20125;-92
2023/01/10 09:13:28;;;;;;;14.88;2.75;;;;;;;6.28;76.19;101704.31;5002883;28;20021;-90
2023/01/10 09:15:54;;;;;;;19.58;3.40;;;;;;;6.31;75.98;101688.53;5021811;28;20527;-92
2023/01/10 09:18:20;;;;;;;17.33;2.67;;;;;;;6.35;76.18;101695.50;5028588;28;20025;-90
2023/01/10 09:20:45;;;;;;;17.38;3.03;;;;;;;6.42;75.90;101707.69;5005146;28;20076;-90
2023/01/10 09:23:16;;;;;;;17.30;3.78;;;;;;;6.35;76.27;101701.63;5027252;28;20116;-89
2023/01/10 09:25:43;;;;;;;18.45;3.58;;;;;;;6.38;76.40;101709.44;5004689;28;20052;-90
2023/01/10 09:28:08;;;;;;;20.50;3.35;;;;;;;6.29;76.14;101685.91;5025132;28;20037;-91
2023/01/10 09:30:34;;;;;;;13.07;3.40;;;;;;;6.39;76.03;101691.97;5026492;28;20038;-91
2023/01/10 09:33:00;;;;;;;15.15;2.80;;;;;;;6.38;76.50;101705.97;5029084;28;20370;-91
2023/01/10 09:35:27;;;;;;;11.73;3.25;;;;;;;6.29;76.53;101695.53;5019529;28;20056;-91
2023/01/10 09:37:55;;;;;;;20.67;3.17;;;;;;;6.21;77.02;101686.88;5027637;28;20029;-91
2023/01/10 09:40:47;;;;;;;14.55;2.58;;;;;;;6.28;76.93;101688.53;4992291;28;20478;-89
2023/01/10 09:43:47;;;;;;;22.50;4.60;;;;;;;6.39;76.56;101705.09;4998748;28;20057;-91
2023/01/10 09:46:21;;;;;;;11.27;3.17;;;;;;;6.45;75.82;101701.53;5023316;28;20433;-91
2023/01/10 09:49:05;;;;;;;12.77;2.75;;;;;;;6.54;76.21;101696.19;5019089;28;20088;-92
2023/01/10 09:51:40;;;;;;;19.80;3.00;;;;;;;6.61;76.41;101703.13;5026484;28;20032;-92
2023/01/10 09:54:12;;;;;;;10.63;2.88;;;;;;;6.59;75.42;101697.88;5005387;28;20053;-91
2023/01/10 09:56:39;;;;;;;16.45;3.83;;;;;;;6.69;76.19;101687.28;5026313;28;20071;-92
2023/01/10 09:59:08;;;;;;;12.20;2.85;;;;;;;6.79;75.67;101689.78;5010678;28;20099;-92
2023/01/10 10:01:35;;;;;;;20.17;3.45;;;;;;;6.73;75.04;101687.25;5029411;28;20469;-91
2023/01/10 10:04:29;;;;;;;14.63;3.95;;;;;;;6.89;75.43;101685.28;5028658;28;20025;-91
2023/01/10 10:06:55;;;;;;;10.15;2.25;;;;;;;6.86;75.15;101695.88;5027509;28;20440;-91
2023/01/10 10:09:23;;;;;;;14.20;3.20;;;;;;;6.99;74.79;101704.47;5026288;28;20087;-92
2023/01/10 10:12:02;;;;;;;18.27;3.00;;;;;;;7.08;74.34;101704.34;5028179;28;20543;-91
2023/01/10 10:14:37;;;;;;;13.75;3.47;;;;;;;7.18;74.14;101705.13;5009878;28;20060;-91
2023/01/10 10:17:34;;;;;;;23.90;3.72;;;;;;;7.35;75.21;101684.72;5006395;28;20092;-92
2023/01/10 10:20:21;;;;;;;12.80;2.28;;;;;;;7.36;74.17;101682.06;5023339;28;20492;-91
2023/01/10 10:22:53;;;;;;;15.35;3.38;;;;;;;7.31;73.51;101690.91;5008982;28;20397;-91
2023/01/10 10:26:01;;;;;;;12.70;2.80;;;;;;;7.40;74.45;101670.63;5008232;28;20551;-91
2023/01/10 10:28:43;;;;;;;15.98;2.95;;;;;;;7.33;74.17;101670.75;4944920;28;20035;-90
2023/01/10 10:31:14;;;;;;;13.07;2.67;;;;;;;7.35;73.91;101672.44;4944362;28;20032;-92
2023/01/10 10:33:55;;;;;;;21.77;4.15;;;;;;;7.37;73.43;101662.78;5001003;28;20555;-91
2023/01/10 10:36:25;;;;;;;19.90;2.97;;;;;;;7.33;73.63;101658.47;5009711;28;20047;-93
2023/01/10 10:38:54;;;;;;;15.70;2.95;;;;;;;7.32;73.97;101663.72;5006707;28;20017;-93
2023/01/10 10:41:29;;;;;;;14.90;2.53;;;;;;;7.39;73.72;101646.97;5007056;28;20116;-90
2023/01/10 10:44:02;;;;;;;10.50;3.22;;;;;;;7.46;74.67;101640.75;5008789;28;20072;-90
2023/01/10 10:46:29;;;;;;;8.55;1.85;;;;;;;7.47;73.94;101639.00;5007207;28;20026;-91
2023/01/10 10:49:03;;;;;;;16.05;3.10;;;;;;;7.40;74.11;101632.94;5019803;28;20052;-90
2023/01/10 10:51:49;;;;;;;13.50;2.53;;;;;;;7.40;73.25;101639.06;5000448;28;20473;-91
2023/01/10 10:54:15;;;;;;;20.63;3.40;;;;;;;7.41;73.68;101625.03;5019348;28;20152;-92
2023/01/10 10:56:42;;;;;;;12.80;2.90;;;;;;;7.34;73.33;101619.88;5024213;28;20513;-93
2023/01/10 10:59:08;;;;;;;12.60;2.97;;;;;;;7.44;73.36;101613.56;5008651;28;20034;-91
2023/01/10 11:01:33;;;;;;;14.20;3.22;;;;;;;7.64;73.45;101623.78;5001850;28;20068;-91
2023/01/10 11:04:12;;;;;;;15.40;3.50;;;;;;;7.47;73.48;101607.41;5002853;28;20145;-89
2023/01/10 11:06:40;;;;;;;17.13;3.30;;;;;;;7.48;72.95;101628.44;5000793;28;20104;-91
2023/01/10 11:09:06;;;;;;;13.82;3.53;;;;;;;7.74;72.90;101608.72;5006418;28;20028;-91
2023/01/10 11:11:36;;;;;;;15.98;3.30;;;;;;;7.46;73.05;101596.03;5002841;28;20049;-91
2023/01/10 11:14:06;;;;;;;15.98;3.72;;;;;;;7.48;73.50;101601.25;5008113;28;20036;-93
2023/01/10 11:16:36;;;;;;;15.00;3.13;;;;;;;7.56;73.38;101597.63;5010473;28;20026;-91
2023/01/10 11:19:10;;;;;;;17.27;3.35;;;;;;;7.61;73.25;101601.03;5028770;28;20076;-91
2023/01/10 11:21:39;;;;;;;18.83;3.72;;;;;;;7.72;73.04;101602.63;5031549;28;20760;-91
2023/01/10 11:24:13;;;;;;;19.40;3.33;;;;;;;7.78;73.30;101600.75;5032001;28;20021;-91
2023/01/10 11:26:39;;;;;;;15.57;3.20;;;;;;;7.77;73.60;101595.53;5016835;28;20499;-91
2023/01/10 11:29:13;;;;;;;22.92;3.50;;;;;;;7.85;73.10;101588.38;5015592;28;20022;-91
2023/01/10 11:31:39;;;;;;;16.20;3.22;;;;;;;7.79;72.98;101588.50;5013287;28;20030;-90
2023/01/10 11:34:15;;;;;;;18.23;3.80;;;;;;;8.00;72.50;101600.41;5030374;28;20033;-91
2023/01/10 11:36:59;;;;;;;15.07;3.40;;;;;;;8.08;72.83;101590.63;5029181;28;20080;-90
2023/01/10 11:39:25;;;;;;;23.33;4.15;;;;;;;7.74;73.06;101596.47;5025868;28;20497;-91